Time;durP1;ratioP1;P1;durP2;ratioP2;P2;SDS_P1;SDS_P2;PMS_P1;PMS_P2;Temp;Humidity;BMP_temperature;BMP_pressure;BME280_temperature;BME280_humidity;BME280_pressure;Samples;Min_cycle;Max_cycle;Signal;HPM_P1;HPM_P2
2023/10/02 00:03:24;;;;;;;13.98;7.40;;;19.80;96.60;;;;;;10492504;28;20604;-68
2023/10/02 00:08:41;;;;;;;14.73;7.90;;;19.80;96.60;;;;;;10493312;28;20954;-66
2023/10/02 00:13:42;;;;;;;14.40;7.85;;;19.80;96.60;;;;;;10494606;28;20416;-67
2023/10/02 00:18:43;;;;;;;14.73;7.47;;;19.80;96.60;;;;;;10487140;28;20380;-67
2023/10/02 00:23:59;;;;;;;15.10;7.70;;;19.80;96.60;;;;;;10500977;28;20478;-67
2023/10/02 00:29:00;;;;;;;14.38;7.72;;;19.80;96.60;;;;;;10485085;28;20412;-68
2023/10/02 00:34:03;;;;;;;13.03;7.23;;;19.80;96.60;;;;;;10492778;28;20409;-68
2023/10/02 00:44:23;;;;;;;15.88;8.00;;;19.70;96.60;;;;;;10499435;28;20405;-68
2023/10/02 00:49:35;;;;;;;13.27;7.20;;;19.70;96.60;;;;;;10489504;28;20401;-67
2023/10/02 00:54:36;;;;;;;14.98;7.72;;;19.70;96.60;;;;;;10495646;28;20454;-67
2023/10/02 00:59:37;;;;;;;15.05;7.97;;;19.70;96.60;;;;;;10491677;28;20534;-67
2023/10/02 01:04:38;;;;;;;15.18;7.70;;;19.70;96.60;;;;;;10494475;28;20403;-66
2023/10/02 01:09:41;;;;;;;13.43;7.53;;;19.70;96.60;;;;;;10499419;28;20415;-67
2023/10/02 01:14:50;;;;;;;13.65;7.28;;;19.70;96.60;;;;;;10485083;28;20419;-67
2023/10/02 01:19:53;;;;;;;15.13;7.90;;;19.70;96.70;;;;;;10490242;28;20395;-67
2023/10/02 01:25:12;;;;;;;14.98;7.70;;;19.70;96.70;;;;;;10495379;28;20432;-67
2023/10/02 01:30:18;;;;;;;14.30;7.88;;;19.70;96.70;;;;;;10490470;28;20869;-68
2023/10/02 01:35:19;;;;;;;15.40;8.23;;;19.70;96.70;;;;;;10487599;28;20408;-68
2023/10/02 01:40:28;;;;;;;15.20;8.10;;;19.70;96.70;;;;;;10491619;28;20414;-68
2023/10/02 01:45:34;;;;;;;14.60;7.90;;;19.70;96.70;;;;;;10498571;28;20405;-68
2023/10/02 01:50:37;;;;;;;16.08;7.80;;;19.70;96.70;;;;;;10490775;28;20833;-67
2023/10/02 01:55:40;;;;;;;17.17;8.33;;;19.70;96.80;;;;;;10500808;28;20498;-67
2023/10/02 02:00:42;;;;;;;13.80;7.70;;;19.70;96.80;;;;;;10502117;28;20883;-67
2023/10/02 02:05:46;;;;;;;14.63;8.00;;;19.60;96.80;;;;;;10500133;28;20435;-67
2023/10/02 02:10:49;;;;;;;15.30;8.00;;;19.80;96.80;;;;;;10491831;28;20445;-68
2023/10/02 02:16:07;;;;;;;15.88;8.15;;;19.60;96.80;;;;;;10496865;28;20906;-67
2023/10/02 02:21:10;;;;;;;16.08;8.38;;;19.60;96.80;;;;;;10492082;28;20724;-67
2023/10/02 02:26:21;;;;;;;16.77;8.63;;;19.60;96.80;;;;;;10487399;28;20408;-67
2023/10/02 02:31:31;;;;;;;14.48;7.78;;;19.60;96.80;;;;;;10511470;28;21107;-68
2023/10/02 02:36:35;;;;;;;14.73;7.70;;;19.60;96.80;;;;;;10498904;28;20505;-67
2023/10/02 02:41:37;;;;;;;16.35;8.20;;;19.60;96.80;;;;;;10494337;28;20444;-67
2023/10/02 02:46:53;;;;;;;14.33;7.90;;;19.60;96.80;;;;;;10506149;28;20908;-67
2023/10/02 02:51:58;;;;;;;16.30;8.38;;;19.60;96.90;;;;;;10505347;28;20407;-68
2023/10/02 02:57:00;;;;;;;16.17;8.30;;;19.60;96.90;;;;;;10502470;28;20840;-68
2023/10/02 03:02:10;;;;;;;15.10;7.85;;;19.60;96.90;;;;;;10496200;28;20407;-68
2023/10/02 03:07:29;;;;;;;15.40;8.23;;;19.60;96.90;;;;;;10502856;28;20409;-67
2023/10/02 03:12:30;;;;;;;16.17;8.73;;;19.50;96.90;;;;;;10508326;28;20402;-67
2023/10/02 03:17:30;;;;;;;14.35;8.02;;;19.50;96.90;;;;;;10497498;28;20402;-67
2023/10/02 03:22:33;;;;;;;16.50;9.05;;;19.50;96.90;;;;;;10495768;28;20568;-67
2023/10/02 03:27:36;;;;;;;15.93;8.17;;;19.50;96.90;;;;;;10497760;28;20546;-68
2023/10/02 03:32:45;;;;;;;15.23;8.63;;;19.50;96.90;;;;;;10487877;28;20403;-68
2023/10/02 03:37:51;;;;;;;15.30;7.97;;;19.40;96.90;;;;;;10492993;28;20416;-67
2023/10/02 03:42:54;;;;;;;15.52;7.97;;;19.50;96.90;;;;;;10489624;28;20747;-67
2023/10/02 03:48:02;;;;;;;15.15;8.48;;;19.40;96.90;;;;;;10504752;28;20411;-68
2023/10/02 03:53:12;;;;;;;15.75;8.90;;;19.40;96.90;;;;;;10497645;28;20712;-68
2023/10/02 03:58:13;;;;;;;15.27;8.57;;;19.40;96.90;;;;;;10498489;28;20411;-68
2023/10/02 04:03:14;;;;;;;16.38;8.77;;;19.40;96.90;;;;;;10504045;28;20772;-67
2023/10/02 04:08:36;;;;;;;14.00;8.00;;;19.40;96.90;;;;;;10503251;28;20407;-68
2023/10/02 04:13:39;;;;;;;14.73;8.02;;;19.40;96.90;;;;;;10506733;28;20403;-68
2023/10/02 04:18:47;;;;;;;15.07;8.27;;;19.40;96.90;;;;;;10494051;28;20460;-67
2023/10/02 04:23:47;;;;;;;14.43;8.23;;;19.40;96.90;;;;;;10490036;28;20397;-67
2023/10/02 04:28:54;;;;;;;18.17;8.50;;;19.40;96.90;;;;;;10502095;28;20793;-67
2023/10/02 04:44:44;;;;;;;15.77;8.30;;;19.40;97.00;;;;;;10487814;28;20508;-68
2023/10/02 04:55:08;;;;;;;14.37;8.00;;;19.30;97.00;;;;;;10504387;28;20450;-68
2023/10/02 05:00:19;;;;;;;15.40;8.30;;;19.30;96.90;;;;;;10495047;28;20396;-68
2023/10/02 05:05:23;;;;;;;14.55;7.72;;;19.30;97.20;;;;;;10490359;28;20408;-68
2023/10/02 05:10:24;;;;;;;14.18;7.35;;;19.30;97.00;;;;;;10492716;28;20398;-67
2023/10/02 05:15:27;;;;;;;16.47;8.33;;;19.30;97.00;;;;;;10487286;28;20421;-67
2023/10/02 05:20:35;;;;;;;13.63;7.57;;;19.30;97.00;;;;;;10482755;28;20406;-67
2023/10/02 05:25:37;;;;;;;14.00;8.05;;;19.30;97.00;;;;;;10499179;28;20429;-67
2023/10/02 05:30:43;;;;;;;15.18;7.78;;;19.20;97.00;;;;;;10487369;28;20925;-67
2023/10/02 05:35:45;;;;;;;15.05;7.53;;;19.20;97.00;;;;;;10479735;28;20499;-67
2023/10/02 05:40:48;;;;;;;16.23;8.10;;;19.20;96.90;;;;;;10476408;28;20416;-67
2023/10/02 05:45:50;;;;;;;13.20;7.45;;;19.20;97.10;;;;;;10490352;28;20612;-68
2023/10/02 05:50:56;;;;;;;14.20;7.90;;;19.20;97.20;;;;;;10504093;28;20397;-67
2023/10/02 05:55:57;;;;;;;15.10;8.00;;;19.20;97.20;;;;;;10493090;28;20412;-67
2023/10/02 06:01:02;;;;;;;15.13;7.80;;;19.20;97.10;;;;;;10511738;28;20397;-67
2023/10/02 06:06:15;;;;;;;14.80;7.70;;;19.20;97.10;;;;;;10471932;28;20511;-67
2023/10/02 06:11:26;;;;;;;16.10;7.97;;;19.20;97.10;;;;;;10500888;28;20491;-67
2023/10/02 06:16:30;;;;;;;14.93;7.75;;;19.20;97.00;;;;;;10498816;28;20418;-67
2023/10/02 06:21:45;;;;;;;14.35;7.85;;;19.20;97.00;;;;;;10493506;28;20409;-67
2023/10/02 06:26:49;;;;;;;14.55;7.68;;;19.20;97.10;;;;;;10491332;28;20402;-67
2023/10/02 06:32:05;;;;;;;15.35;7.75;;;19.20;97.00;;;;;;10500611;28;20401;-67
2023/10/02 06:37:12;;;;;;;13.57;7.20;;;19.20;97.00;;;;;;10497997;28;20423;-67
2023/10/02 06:42:19;;;;;;;13.95;7.75;;;19.20;97.00;;;;;;10492880;28;20393;-67
2023/10/02 06:47:22;;;;;;;14.33;7.70;;;19.20;97.00;;;;;;10499096;28;20498;-67
2023/10/02 06:52:27;;;;;;;15.47;7.77;;;19.20;96.90;;;;;;10488786;28;20590;-67
2023/10/02 06:57:31;;;;;;;14.70;7.60;;;19.20;96.90;;;;;;10490544;28;20421;-67
2023/10/02 07:02:32;;;;;;;14.35;7.30;;;19.20;96.90;;;;;;10495029;28;20405;-66
2023/10/02 07:07:32;;;;;;;16.23;7.37;;;19.20;96.90;;;;;;10488111;28;20413;-67
2023/10/02 07:12:39;;;;;;;17.30;9.23;;;19.20;96.90;;;;;;10490551;28;20431;-67
2023/10/02 07:17:50;;;;;;;16.37;8.60;;;19.20;96.90;;;;;;10489396;28;20859;-67
2023/10/02 07:22:51;;;;;;;15.53;8.23;;;19.20;96.90;;;;;;10501843;28;20416;-67
2023/10/02 07:27:52;;;;;;;15.32;8.13;;;19.30;97.10;;;;;;10495696;28;20410;-70
2023/10/02 07:32:54;;;;;;;15.40;8.25;;;19.30;97.00;;;;;;10507661;28;20505;-67
2023/10/02 07:37:58;;;;;;;15.38;7.97;;;19.30;96.90;;;;;;10508113;28;20439;-68
2023/10/02 07:42:59;;;;;;;15.43;7.95;;;19.40;97.00;;;;;;10503900;28;20399;-69
2023/10/02 07:48:12;;;;;;;15.33;7.87;;;19.40;97.10;;;;;;10501964;28;20391;-67
2023/10/02 07:53:12;;;;;;;15.63;8.00;;;19.50;97.00;;;;;;10486654;28;20439;-67
2023/10/02 07:58:13;;;;;;;15.20;7.87;;;19.40;97.00;;;;;;10491788;28;20491;-66
2023/10/02 08:03:31;;;;;;;14.38;7.90;;;19.60;97.00;;;;;;10503038;28;20776;-66
2023/10/02 08:08:33;;;;;;;15.98;8.35;;;19.50;97.20;;;;;;10493644;28;20778;-67
2023/10/02 08:13:33;;;;;;;17.10;7.90;;;19.50;96.90;;;;;;10492911;28;20757;-67
2023/10/02 08:18:55;;;;;;;13.35;7.40;;;19.60;96.90;;;;;;10497302;28;20610;-67
2023/10/02 08:23:56;;;;;;;14.98;7.65;;;19.60;96.90;;;;;;10494423;28;21064;-67
2023/10/02 08:29:03;;;;;;;15.82;8.02;;;18.70;96.60;;;;;;10490090;28;20965;-66
2023/10/02 08:34:09;;;;;;;15.07;7.78;;;19.70;96.80;;;;;;10490231;28;20498;-66
2023/10/02 08:39:10;;;;;;;15.63;7.87;;;19.70;96.70;;;;;;10493887;28;20499;-68
2023/10/02 08:44:12;;;;;;;18.10;8.27;;;19.70;96.80;;;;;;10497833;28;20831;-68
2023/10/02 08:49:13;;;;;;;15.30;8.30;;;19.80;96.70;;;;;;10491063;28;20482;-69
2023/10/02 08:54:15;;;;;;;14.43;7.97;;;19.80;96.80;;;;;;10503776;28;20422;-69
2023/10/02 08:59:26;;;;;;;16.05;8.50;;;19.70;96.80;;;;;;10497013;28;20427;-69
2023/10/02 09:19:34;;;;;;;16.25;8.50;;;19.80;97.00;;;;;;10484243;28;20393;-67
2023/10/02 09:24:35;;;;;;;18.35;8.68;;;19.80;97.00;;;;;;10492267;28;20427;-67
2023/10/02 09:29:36;;;;;;;18.10;9.13;;;19.90;97.00;;;;;;10476490;28;20401;-67
2023/10/02 09:34:43;;;;;;;16.83;9.07;;;19.90;97.00;;;;;;10426708;28;1789642;-67
2023/10/02 09:39:44;;;;;;;17.43;9.20;;;20.00;96.90;;;;;;10487538;28;20392;-67
2023/10/02 09:44:47;;;;;;;18.10;9.30;;;19.60;96.80;;;;;;10475336;28;20431;-67
2023/10/02 09:50:23;;;;;;;18.83;9.63;;;20.00;96.90;;;;;;10473443;28;20442;-67
2023/10/02 09:55:47;;;;;;;17.38;9.27;;;20.00;97.00;;;;;;10480668;28;20411;-67
2023/10/02 10:01:36;;;;;;;18.10;9.07;;;20.00;97.20;;;;;;10491769;28;20933;-67
2023/10/02 10:07:05;;;;;;;18.30;9.43;;;20.00;97.00;;;;;;10476948;28;20415;-67
2023/10/02 10:12:32;;;;;;;18.67;9.32;;;20.10;97.00;;;;;;10480668;28;20409;-66
2023/10/02 10:17:51;;;;;;;17.53;9.60;;;20.10;97.00;;;;;;10474791;28;20447;-66
2023/10/02 10:22:55;;;;;;;20.07;10.03;;;20.10;97.00;;;;;;10479462;28;20437;-67
2023/10/02 10:44:01;;;;;;;19.53;9.57;;;20.20;97.10;;;;;;10486540;28;20752;-67
2023/10/02 10:54:25;;;;;;;18.23;9.45;;;20.40;97.10;;;;;;10497147;28;21059;-68
2023/10/02 10:59:33;;;;;;;20.27;8.98;;;20.50;97.10;;;;;;10497191;28;20803;-68
2023/10/02 11:04:34;;;;;;;19.52;10.07;;;20.60;97.20;;;;;;10490994;28;20779;-66
2023/10/02 11:09:41;;;;;;;21.13;10.05;;;20.60;97.10;;;;;;10493143;28;20816;-67
2023/10/02 11:14:44;;;;;;;19.73;9.80;;;20.60;97.10;;;;;;10502580;28;20419;-66
2023/10/02 11:19:55;;;;;;;20.70;9.98;;;20.60;97.10;;;;;;10498278;28;20963;-67
2023/10/02 11:24:55;;;;;;;21.45;10.30;;;20.60;97.20;;;;;;10494211;28;20428;-67
2023/10/02 11:30:02;;;;;;;20.43;10.07;;;20.70;97.30;;;;;;10488552;28;20921;-67
2023/10/02 11:35:04;;;;;;;20.07;10.27;;;20.70;97.30;;;;;;10489792;28;20418;-67
2023/10/02 11:40:06;;;;;;;21.23;10.35;;;20.70;97.40;;;;;;10487028;28;20871;-67
2023/10/02 11:45:08;;;;;;;19.00;9.53;;;20.70;97.50;;;;;;10487533;28;20487;-67
2023/10/02 11:50:09;;;;;;;20.27;9.98;;;20.80;97.40;;;;;;10495387;28;20414;-66
2023/10/02 11:55:10;;;;;;;23.97;11.23;;;20.80;97.40;;;;;;10501880;28;20566;-68
2023/10/02 12:00:12;;;;;;;24.77;11.68;;;20.90;98.40;;;;;;10494376;28;20903;-68
2023/10/02 12:05:13;;;;;;;23.53;11.30;;;21.10;98.90;;;;;;10501545;28;20417;-68
2023/10/02 12:10:16;;;;;;;22.60;11.07;;;21.30;99.40;;;;;;10482923;28;20465;-69
2023/10/02 12:15:17;;;;;;;22.85;11.30;;;21.60;99.10;;;;;;10493118;28;22265;-68
2023/10/02 12:20:22;;;;;;;23.95;11.70;;;21.70;99.00;;;;;;10489652;28;20395;-68
2023/10/02 12:25:23;;;;;;;26.20;11.63;;;21.80;98.80;;;;;;10491895;28;20406;-68
2023/10/02 12:30:24;;;;;;;21.93;11.03;;;21.90;98.70;;;;;;10491657;28;20881;-67
2023/10/02 12:35:24;;;;;;;18.97;9.70;;;22.00;98.60;;;;;;10486271;28;20794;-67
2023/10/02 12:40:31;;;;;;;21.77;10.13;;;22.10;98.10;;;;;;10493890;28;20834;-68
2023/10/02 12:45:35;;;;;;;20.00;10.02;;;22.20;98.10;;;;;;10494130;28;20405;-68
2023/10/02 12:50:39;;;;;;;20.27;10.43;;;22.30;98.00;;;;;;10480068;28;20420;-68
2023/10/02 12:55:43;;;;;;;20.50;10.33;;;22.40;98.10;;;;;;10489662;28;20602;-68
2023/10/02 13:00:44;;;;;;;25.02;11.88;;;22.40;97.90;;;;;;10505942;28;20411;-67
2023/10/02 13:05:45;;;;;;;23.43;10.87;;;22.40;98.20;;;;;;10491955;28;20819;-66
2023/10/02 13:10:45;;;;;;;26.33;11.10;;;22.40;98.10;;;;;;10490772;28;20523;-67
2023/10/02 13:15:50;;;;;;;21.10;10.18;;;22.50;97.80;;;;;;10494172;28;20419;-67
2023/10/02 13:20:53;;;;;;;24.03;11.17;;;22.50;97.50;;;;;;10493242;28;20489;-67
2023/10/02 13:25:54;;;;;;;20.67;10.02;;;22.80;97.50;;;;;;10489398;28;20441;-67
2023/10/02 13:30:54;;;;;;;26.30;10.80;;;22.50;97.60;;;;;;10486236;28;20429;-67
2023/10/02 13:36:00;;;;;;;23.60;10.70;;;22.60;97.60;;;;;;10487991;28;20457;-67
2023/10/02 13:41:11;;;;;;;24.13;10.37;;;22.60;97.60;;;;;;10494689;28;20402;-67
2023/10/02 13:46:16;;;;;;;22.20;10.45;;;22.70;97.70;;;;;;10488612;28;20464;-67
2023/10/02 13:51:17;;;;;;;20.42;9.75;;;22.70;97.70;;;;;;10498904;28;20470;-66
2023/10/02 13:56:20;;;;;;;20.73;9.50;;;22.80;97.60;;;;;;10491186;28;20474;-66
2023/10/02 14:01:24;;;;;;;16.48;8.45;;;22.90;97.40;;;;;;10485554;28;20410;-67
2023/10/02 14:06:28;;;;;;;15.50;7.80;;;23.00;97.60;;;;;;10488304;28;20410;-67
2023/10/02 14:11:29;;;;;;;19.42;8.60;;;22.90;97.60;;;;;;10494186;28;20405;-69
2023/10/02 14:16:30;;;;;;;18.43;7.97;;;23.10;97.50;;;;;;10493273;28;20520;-67
2023/10/02 14:21:32;;;;;;;18.30;8.82;;;23.10;97.30;;;;;;10498954;28;20520;-66
2023/10/02 14:26:33;;;;;;;18.20;8.70;;;23.10;97.70;;;;;;10500430;28;20818;-69
2023/10/02 14:31:34;;;;;;;18.07;8.53;;;23.10;97.80;;;;;;10502247;28;20480;-67
2023/10/02 14:36:35;;;;;;;16.48;7.82;;;23.10;97.40;;;;;;10487708;28;20411;-67
2023/10/02 14:41:37;;;;;;;14.30;7.22;;;23.10;97.60;;;;;;10503722;28;20757;-67
2023/10/02 14:46:39;;;;;;;14.53;7.00;;;23.10;97.30;;;;;;10491747;28;20409;-68
2023/10/02 14:51:40;;;;;;;14.40;7.05;;;23.20;97.60;;;;;;10498951;28;20411;-68
2023/10/02 14:56:41;;;;;;;15.95;7.22;;;23.20;97.50;;;;;;10503104;28;20411;-68
2023/10/02 15:01:42;;;;;;;14.73;7.50;;;23.20;97.40;;;;;;10507723;28;20401;-68
2023/10/02 15:06:43;;;;;;;14.07;7.10;;;23.30;97.50;;;;;;10502604;28;20918;-69
2023/10/02 15:11:43;;;;;;;16.00;7.73;;;23.20;97.70;;;;;;10502299;28;20402;-70
2023/10/02 15:16:44;;;;;;;15.93;7.73;;;23.20;97.60;;;;;;10489783;28;20902;-70
2023/10/02 15:21:45;;;;;;;15.77;7.23;;;23.10;98.00;;;;;;10479308;28;20852;-69
2023/10/02 15:26:46;;;;;;;18.97;7.13;;;23.00;98.00;;;;;;10494925;28;20754;-69
2023/10/02 15:31:46;;;;;;;16.50;7.77;;;23.00;98.10;;;;;;10498913;28;20406;-68
2023/10/02 15:36:47;;;;;;;14.13;7.00;;;22.90;98.10;;;;;;10489420;28;20431;-68
2023/10/02 15:41:52;;;;;;;13.55;7.05;;;22.90;98.30;;;;;;10500261;28;21109;-68
2023/10/02 15:46:53;;;;;;;14.87;7.20;;;22.90;98.30;;;;;;10493827;28;20538;-69
2023/10/02 15:51:54;;;;;;;14.13;7.43;;;22.80;99.00;;;;;;10486718;28;20399;-69
2023/10/02 15:57:02;;;;;;;17.67;8.00;;;22.80;99.20;;;;;;10484323;28;20411;-69
2023/10/02 16:02:04;;;;;;;18.40;8.88;;;22.80;99.50;;;;;;10486773;28;20412;-69
2023/10/02 16:07:05;;;;;;;16.43;7.87;;;22.80;99.80;;;;;;10497736;28;20425;-69
2023/10/02 16:12:06;;;;;;;17.52;9.38;;;22.80;99.80;;;;;;10496124;28;20430;-69
2023/10/02 16:17:07;;;;;;;21.93;9.53;;;22.80;99.90;;;;;;10493935;28;20772;-69
2023/10/02 16:22:08;;;;;;;20.77;9.38;;;22.70;99.90;;;;;;10495576;28;20482;-69
2023/10/02 16:27:09;;;;;;;18.90;9.07;;;22.60;99.90;;;;;;10483491;28;20418;-69
2023/10/02 16:32:13;;;;;;;18.80;8.90;;;22.50;99.90;;;;;;10491903;28;20435;-69
2023/10/02 16:37:14;;;;;;;18.00;8.52;;;22.50;99.90;;;;;;10495811;28;20423;-69
2023/10/02 16:42:15;;;;;;;17.13;8.70;;;22.40;99.90;;;;;;10486489;28;20395;-71
2023/10/02 16:47:16;;;;;;;19.03;8.63;;;22.30;99.90;;;;;;10502389;28;20899;-68
2023/10/02 16:52:18;;;;;;;18.15;8.57;;;22.20;99.90;;;;;;10496710;28;20753;-68
2023/10/02 16:57:19;;;;;;;15.47;8.03;;;22.20;99.90;;;;;;10503542;28;20408;-68
2023/10/02 17:02:20;;;;;;;18.07;8.37;;;22.20;99.90;;;;;;10500936;28;20400;-68
2023/10/02 17:07:20;;;;;;;17.20;8.20;;;22.20;99.90;;;;;;10489528;28;20949;-69
2023/10/02 17:12:21;;;;;;;14.43;7.07;;;22.20;99.90;;;;;;10500683;28;20898;-71
2023/10/02 17:17:22;;;;;;;14.77;7.10;;;22.20;99.90;;;;;;10492983;28;20738;-68
2023/10/02 17:22:24;;;;;;;17.83;7.30;;;22.20;99.90;;;;;;10497340;28;20904;-66
2023/10/02 17:27:30;;;;;;;13.30;7.20;;;22.20;99.90;;;;;;10498772;28;20433;-67
2023/10/02 17:32:34;;;;;;;13.38;7.18;;;22.10;99.90;;;;;;10493478;28;20931;-67
2023/10/02 17:37:35;;;;;;;12.90;7.30;;;22.10;99.90;;;;;;10490866;28;20960;-67
2023/10/02 17:42:37;;;;;;;14.18;7.72;;;22.10;99.90;;;;;;10468090;28;20409;-67
2023/10/02 17:47:42;;;;;;;13.35;6.68;;;22.10;99.90;;;;;;10495217;28;20428;-66
2023/10/02 17:52:43;;;;;;;14.13;7.75;;;22.00;99.90;;;;;;10497708;28;20416;-67
2023/10/02 17:57:45;;;;;;;12.40;7.00;;;22.00;99.90;;;;;;10497621;28;20755;-66
2023/10/02 18:02:46;;;;;;;14.20;7.10;;;22.00;99.90;;;;;;10482277;28;20907;-66
2023/10/02 18:07:48;;;;;;;12.15;7.10;;;22.00;99.80;;;;;;10485343;28;20399;-66
2023/10/02 18:12:49;;;;;;;13.67;7.30;;;21.90;99.80;;;;;;10489665;28;20453;-67
2023/10/02 18:17:50;;;;;;;13.15;7.28;;;21.90;99.80;;;;;;10495573;28;20399;-67
2023/10/02 18:22:50;;;;;;;12.45;6.72;;;21.90;99.80;;;;;;10494756;28;20403;-66
2023/10/02 18:27:51;;;;;;;12.65;7.18;;;21.90;99.70;;;;;;10498511;28;20482;-65
2023/10/02 18:32:51;;;;;;;12.60;7.03;;;22.00;99.70;;;;;;10494203;28;20428;-67
2023/10/02 18:37:52;;;;;;;12.48;6.85;;;21.80;99.70;;;;;;10496522;28;20947;-66
2023/10/02 18:42:53;;;;;;;13.63;6.95;;;21.80;99.60;;;;;;10492924;28;20853;-67
2023/10/02 18:47:54;;;;;;;12.27;7.13;;;21.80;99.60;;;;;;10498308;28;20429;-66
2023/10/02 18:52:54;;;;;;;12.10;7.18;;;21.70;99.60;;;;;;10493087;28;20406;-67
2023/10/02 18:57:55;;;;;;;12.80;7.25;;;21.80;99.60;;;;;;10503427;28;20930;-65
2023/10/02 19:02:59;;;;;;;12.30;7.07;;;21.70;99.60;;;;;;10502297;28;20455;-66
2023/10/02 19:07:59;;;;;;;11.55;7.10;;;21.70;99.60;;;;;;10497686;28;20394;-67
2023/10/02 19:13:00;;;;;;;12.30;7.43;;;21.60;99.60;;;;;;10483803;28;20427;-66
2023/10/02 19:18:01;;;;;;;14.47;7.40;;;21.60;99.50;;;;;;10495175;28;20431;-67
2023/10/02 19:23:01;;;;;;;12.60;7.10;;;21.60;99.50;;;;;;10486501;28;20440;-65
2023/10/02 19:28:02;;;;;;;13.43;7.43;;;21.60;99.50;;;;;;10488714;28;20420;-66
2023/10/02 19:33:03;;;;;;;11.37;7.00;;;21.60;99.50;;;;;;10491956;28;20402;-70
2023/10/02 19:38:06;;;;;;;12.32;6.85;;;21.60;99.50;;;;;;10487091;28;20517;-68
2023/10/02 19:43:07;;;;;;;70.25;18.50;;;21.50;99.70;;;;;;10494361;28;20395;-68
2023/10/02 19:48:08;;;;;;;78.15;19.52;;;21.50;99.60;;;;;;10500219;28;20909;-68
2023/10/02 19:53:08;;;;;;;53.25;17.27;;;21.50;99.70;;;;;;10499713;28;20917;-68
2023/10/02 19:58:10;;;;;;;68.50;19.87;;;21.50;99.60;;;;;;10505279;28;20405;-68
2023/10/02 20:03:11;;;;;;;68.50;18.55;;;21.80;99.70;;;;;;10491562;28;20972;-67
2023/10/02 20:08:13;;;;;;;71.35;19.92;;;21.40;99.60;;;;;;10485753;28;20536;-68
2023/10/02 20:13:14;;;;;;;62.20;19.37;;;21.40;99.50;;;;;;10482492;28;20794;-68
2023/10/02 20:18:16;;;;;;;63.05;19.52;;;21.40;99.60;;;;;;10484369;28;20410;-68
2023/10/02 20:23:17;;;;;;;57.92;17.90;;;21.40;99.60;;;;;;10484032;28;20391;-68
2023/10/02 20:28:21;;;;;;;58.03;17.45;;;21.40;99.60;;;;;;10486376;28;20407;-67
2023/10/02 20:33:22;;;;;;;56.93;16.83;;;21.30;99.60;;;;;;10481248;28;20413;-66
2023/10/02 20:38:23;;;;;;;50.93;16.30;;;21.30;99.60;;;;;;10482445;28;20905;-66
2023/10/02 20:43:23;;;;;;;51.87;16.37;;;21.30;99.60;;;;;;10483409;28;21132;-66
2023/10/02 20:48:24;;;;;;;47.83;15.67;;;21.30;99.60;;;;;;10486017;28;20399;-66
2023/10/02 20:53:24;;;;;;;43.33;15.80;;;21.30;99.60;;;;;;10486146;28;20754;-66
2023/10/02 20:58:25;;;;;;;41.93;15.00;;;21.20;99.60;;;;;;10485613;28;20406;-66
2023/10/02 21:03:26;;;;;;;46.30;14.90;;;21.20;99.60;;;;;;10482205;28;20471;-67
2023/10/02 21:08:26;;;;;;;43.77;14.83;;;21.20;99.60;;;;;;10486634;28;20716;-66
2023/10/02 21:13:27;;;;;;;42.60;14.90;;;21.20;99.60;;;;;;10477136;28;20435;-66
2023/10/02 21:18:30;;;;;;;38.50;14.50;;;21.10;99.50;;;;;;10484185;28;20413;-65
2023/10/02 21:23:30;;;;;;;37.30;13.88;;;21.10;99.60;;;;;;10485912;28;20701;-66
2023/10/02 21:28:31;;;;;;;36.93;14.80;;;21.10;99.60;;;;;;10491040;28;20405;-65
2023/10/02 21:33:32;;;;;;;39.00;13.93;;;21.10;99.60;;;;;;10486165;28;20572;-66
2023/10/02 21:38:34;;;;;;;37.13;14.52;;;21.10;99.60;;;;;;10481950;28;20498;-66
2023/10/02 21:43:35;;;;;;;34.92;14.50;;;21.00;99.60;;;;;;10484518;28;20399;-66
2023/10/02 21:48:36;;;;;;;32.07;13.80;;;21.10;99.60;;;;;;10486464;28;20914;-66
2023/10/02 21:53:40;;;;;;;31.25;12.40;;;21.00;99.80;;;;;;10487330;28;20452;-66
2023/10/02 21:58:42;;;;;;;39.63;14.40;;;21.00;99.60;;;;;;10492518;28;20411;-66
2023/10/02 22:03:42;;;;;;;34.55;13.20;;;21.00;99.60;;;;;;10485154;28;20601;-65
2023/10/02 22:08:43;;;;;;;30.63;13.75;;;21.00;99.60;;;;;;10482681;28;20403;-66
2023/10/02 22:13:44;;;;;;;32.67;14.02;;;21.00;99.60;;;;;;10487895;28;20403;-65
2023/10/02 22:18:46;;;;;;;30.80;13.30;;;21.00;99.80;;;;;;10485939;28;20767;-65
2023/10/02 22:23:49;;;;;;;29.83;12.75;;;20.90;99.80;;;;;;10489400;28;20400;-65
2023/10/02 22:28:50;;;;;;;30.50;14.00;;;20.90;99.70;;;;;;10482794;28;20399;-69
2023/10/02 22:33:52;;;;;;;31.77;12.70;;;20.90;99.70;;;;;;10488544;28;20415;-65
2023/10/02 22:38:53;;;;;;;30.60;13.48;;;20.90;99.60;;;;;;10495484;28;20443;-65
2023/10/02 22:43:53;;;;;;;28.97;13.07;;;20.90;99.60;;;;;;10493452;28;20488;-65
2023/10/02 22:48:55;;;;;;;28.77;12.77;;;20.90;99.60;;;;;;10498557;28;20408;-65
2023/10/02 22:53:57;;;;;;;25.65;13.10;;;20.90;99.60;;;;;;10496368;28;20402;-64
2023/10/02 22:58:57;;;;;;;28.73;13.48;;;20.90;99.60;;;;;;10501633;28;20838;-65
2023/10/02 23:03:59;;;;;;;28.80;12.80;;;20.90;99.60;;;;;;10501693;28;20495;-65
2023/10/02 23:09:00;;;;;;;24.57;13.07;;;20.80;99.50;;;;;;10490826;28;20909;-65
2023/10/02 23:14:01;;;;;;;26.80;13.02;;;20.80;99.60;;;;;;10497282;28;20497;-64
2023/10/02 23:19:04;;;;;;;29.80;13.00;;;20.80;99.50;;;;;;10492016;28;20404;-65
2023/10/02 23:24:06;;;;;;;25.70;12.75;;;20.80;99.60;;;;;;10505092;28;20405;-65
2023/10/02 23:29:07;;;;;;;26.35;12.77;;;20.80;99.60;;;;;;10497945;28;20405;-65
2023/10/02 23:34:08;;;;;;;24.20;12.82;;;20.70;99.50;;;;;;10493553;28;20411;-65
2023/10/02 23:39:09;;;;;;;24.73;12.73;;;20.70;99.50;;;;;;10503927;28;20413;-66
2023/10/02 23:44:12;;;;;;;24.37;12.37;;;20.70;99.60;;;;;;10498148;28;20401;-65
2023/10/02 23:49:13;;;;;;;29.00;12.88;;;20.70;99.50;;;;;;10494518;28;20403;-65
2023/10/02 23:54:17;;;;;;;23.00;11.97;;;20.70;99.50;;;;;;10501705;28;20731;-66
2023/10/02 23:59:18;;;;;;;24.80;12.80;;;20.70;99.50;;;;;;10501898;28;20452;-64
